sensor_id;sensor_type;location;lat;lon;timestamp;pressure;altitude;pressure_sealevel;temperature;humidity
45941;BME280;31858;46.008;8.978;2023-06-10T00:08:24;94232.81;;;17.75;100.00
45941;BME280;31858;46.008;8.978;2023-06-10T00:18:27;94233.50;;;17.79;100.00
45941;BME280;31858;46.008;8.978;2023-06-10T00:28:31;94241.34;;;17.74;100.00
45941;BME280;31858;46.008;8.978;2023-06-10T00:38:34;94221.44;;;17.84;100.00
45941;BME280;31858;46.008;8.978;2023-06-10T00:48:36;94218.59;;;17.58;100.00
45941;BME280;31858;46.008;8.978;2023-06-10T00:58:39;94225.50;;;17.59;100.00
45941;BME280;31858;46.008;8.978;2023-06-10T01:08:46;94202.75;;;17.77;100.00
45941;BME280;31858;46.008;8.978;2023-06-10T01:18:53;94207.25;;;17.51;100.00
45941;BME280;31858;46.008;8.978;2023-06-10T01:28:58;94205.97;;;17.55;100.00
45941;BME280;31858;46.008;8.978;2023-06-10T01:39:02;94217.09;;;17.41;100.00
45941;BME280;31858;46.008;8.978;2023-06-10T01:49:06;94217.34;;;17.47;100.00
45941;BME280;31858;46.008;8.978;2023-06-10T01:59:08;94218.28;;;17.40;100.00
45941;BME280;31858;46.008;8.978;2023-06-10T02:09:11;94213.06;;;17.33;100.00
45941;BME280;31858;46.008;8.978;2023-06-10T02:19:12;94214.41;;;17.41;100.00
45941;BME280;31858;46.008;8.978;2023-06-10T02:29:15;94206.66;;;17.43;100.00
45941;BME280;31858;46.008;8.978;2023-06-10T02:39:17;94214.41;;;17.25;100.00
45941;BME280;31858;46.008;8.978;2023-06-10T02:49:20;94204.81;;;17.24;100.00
45941;BME280;31858;46.008;8.978;2023-06-10T02:59:21;94200.84;;;17.28;100.00
45941;BME280;31858;46.008;8.978;2023-06-10T03:09:24;94198.41;;;17.34;100.00
45941;BME280;31858;46.008;8.978;2023-06-10T03:19:26;94190.50;;;17.43;100.00
45941;BME280;31858;46.008;8.978;2023-06-10T03:29:29;94200.94;;;17.25;100.00
45941;BME280;31858;46.008;8.978;2023-06-10T03:39:30;94205.31;;;17.19;100.00
45941;BME280;31858;46.008;8.978;2023-06-10T03:49:33;94197.84;;;17.26;100.00
45941;BME280;31858;46.008;8.978;2023-06-10T03:59:36;94215.75;;;17.17;100.00
45941;BME280;31858;46.008;8.978;2023-06-10T04:09:39;94221.13;;;17.17;100.00
45941;BME280;31858;46.008;8.978;2023-06-10T04:19:41;94215.84;;;17.13;100.00
45941;BME280;31858;46.008;8.978;2023-06-10T04:29:44;94215.91;;;17.10;100.00
45941;BME280;31858;46.008;8.978;2023-06-10T04:39:45;94207.34;;;17.15;100.00
45941;BME280;31858;46.008;8.978;2023-06-10T04:49:48;94209.53;;;17.20;100.00
45941;BME280;31858;46.008;8.978;2023-06-10T04:59:50;94207.94;;;17.22;100.00
45941;BME280;31858;46.008;8.978;2023-06-10T05:09:53;94207.75;;;17.29;100.00
45941;BME280;31858;46.008;8.978;2023-06-10T05:19:55;94193.88;;;17.31;100.00
45941;BME280;31858;46.008;8.978;2023-06-10T05:29:58;94194.72;;;17.28;100.00
45941;BME280;31858;46.008;8.978;2023-06-10T05:39:59;94204.66;;;17.31;100.00
45941;BME280;31858;46.008;8.978;2023-06-10T05:50:03;94213.06;;;17.33;100.00
45941;BME280;31858;46.008;8.978;2023-06-10T06:00:08;94223.00;;;17.36;100.00
45941;BME280;31858;46.008;8.978;2023-06-10T06:10:11;94223.56;;;17.44;100.00
45941;BME280;31858;46.008;8.978;2023-06-10T06:20:13;94226.69;;;17.42;100.00
45941;BME280;31858;46.008;8.978;2023-06-10T06:30:16;94236.28;;;17.43;100.00
45941;BME280;31858;46.008;8.978;2023-06-10T06:40:17;94245.97;;;17.41;100.00
45941;BME280;31858;46.008;8.978;2023-06-10T06:50:20;94245.88;;;17.44;100.00
45941;BME280;31858;46.008;8.978;2023-06-10T07:00:22;94259.69;;;17.46;100.00
45941;BME280;31858;46.008;8.978;2023-06-10T07:10:25;94249.31;;;17.45;100.00
45941;BME280;31858;46.008;8.978;2023-06-10T07:20:27;94253.44;;;17.49;100.00
45941;BME280;31858;46.008;8.978;2023-06-10T07:30:30;94252.78;;;17.45;100.00
45941;BME280;31858;46.008;8.978;2023-06-10T07:40:32;94257.91;;;17.56;100.00
45941;BME280;31858;46.008;8.978;2023-06-10T07:50:35;94253.19;;;17.60;100.00
45941;BME280;31858;46.008;8.978;2023-06-10T08:00:36;94244.44;;;17.72;100.00
45941;BME280;31858;46.008;8.978;2023-06-10T08:10:39;94228.09;;;17.79;100.00
45941;BME280;31858;46.008;8.978;2023-06-10T08:20:41;94220.59;;;17.87;100.00
45941;BME280;31858;46.008;8.978;2023-06-10T08:30:44;94217.72;;;17.94;100.00
45941;BME280;31858;46.008;8.978;2023-06-10T08:40:46;94223.00;;;17.98;100.00
45941;BME280;31858;46.008;8.978;2023-06-10T08:50:50;94227.34;;;18.08;100.00
45941;BME280;31858;46.008;8.978;2023-06-10T09:00:53;94226.09;;;18.25;100.00
45941;BME280;31858;46.008;8.978;2023-06-10T09:10:57;94239.94;;;18.40;100.00
45941;BME280;31858;46.008;8.978;2023-06-10T09:20:59;94222.25;;;18.39;100.00
45941;BME280;31858;46.008;8.978;2023-06-10T09:31:04;94214.69;;;18.46;100.00
45941;BME280;31858;46.008;8.978;2023-06-10T09:41:07;94208.34;;;18.53;100.00
45941;BME280;31858;46.008;8.978;2023-06-10T09:51:10;94209.69;;;18.61;100.00
45941;BME280;31858;46.008;8.978;2023-06-10T10:01:13;94205.38;;;18.76;100.00
45941;BME280;31858;46.008;8.978;2023-06-10T10:11:18;94208.63;;;18.97;100.00
45941;BME280;31858;46.008;8.978;2023-06-10T10:21:24;94205.06;;;19.00;100.00
45941;BME280;31858;46.008;8.978;2023-06-10T10:31:29;94202.25;;;19.03;100.00
45941;BME280;31858;46.008;8.978;2023-06-10T10:41:36;94200.94;;;19.08;100.00
45941;BME280;31858;46.008;8.978;2023-06-10T10:51:54;94204.25;;;19.37;100.00
45941;BME280;31858;46.008;8.978;2023-06-10T11:01:56;94174.88;;;19.39;100.00
45941;BME280;31858;46.008;8.978;2023-06-10T11:11:59;94175.88;;;19.67;100.00
45941;BME280;31858;46.008;8.978;2023-06-10T11:22:01;94165.72;;;19.93;100.00
45941;BME280;31858;46.008;8.978;2023-06-10T11:32:06;94153.44;;;20.01;100.00
45941;BME280;31858;46.008;8.978;2023-06-10T11:42:08;94153.94;;;20.31;100.00
45941;BME280;31858;46.008;8.978;2023-06-10T11:52:12;94145.38;;;20.32;100.00
45941;BME280;31858;46.008;8.978;2023-06-10T12:02:15;94135.03;;;20.62;100.00
45941;BME280;31858;46.008;8.978;2023-06-10T12:12:18;94125.28;;;20.73;100.00
45941;BME280;31858;46.008;8.978;2023-06-10T12:22:21;94124.44;;;21.04;100.00
45941;BME280;31858;46.008;8.978;2023-06-10T12:32:35;94116.56;;;21.46;100.00
45941;BME280;31858;46.008;8.978;2023-06-10T12:42:37;94109.78;;;21.32;100.00
45941;BME280;31858;46.008;8.978;2023-06-10T12:52:40;94110.03;;;21.16;100.00
45941;BME280;31858;46.008;8.978;2023-06-10T13:02:42;94109.63;;;21.36;100.00
45941;BME280;31858;46.008;8.978;2023-06-10T13:12:45;94100.59;;;21.85;100.00
45941;BME280;31858;46.008;8.978;2023-06-10T13:22:47;94087.13;;;22.18;100.00
45941;BME280;31858;46.008;8.978;2023-06-10T13:32:51;94070.06;;;22.26;100.00
45941;BME280;31858;46.008;8.978;2023-06-10T13:42:52;94071.63;;;22.51;100.00
45941;BME280;31858;46.008;8.978;2023-06-10T13:52:55;94062.59;;;22.78;100.00
45941;BME280;31858;46.008;8.978;2023-06-10T14:02:57;94057.91;;;22.88;100.00
45941;BME280;31858;46.008;8.978;2023-06-10T14:13:00;94052.72;;;22.99;100.00
45941;BME280;31858;46.008;8.978;2023-06-10T14:23:02;94048.50;;;23.36;100.00
45941;BME280;31858;46.008;8.978;2023-06-10T14:33:05;94040.66;;;23.38;100.00
45941;BME280;31858;46.008;8.978;2023-06-10T14:43:07;94037.50;;;23.55;100.00
45941;BME280;31858;46.008;8.978;2023-06-10T14:53:11;94039.16;;;23.52;100.00
45941;BME280;31858;46.008;8.978;2023-06-10T15:03:13;94046.03;;;23.24;100.00
45941;BME280;31858;46.008;8.978;2023-06-10T15:13:16;94051.41;;;23.48;100.00
45941;BME280;31858;46.008;8.978;2023-06-10T15:23:17;94043.91;;;23.42;100.00
45941;BME280;31858;46.008;8.978;2023-06-10T15:33:21;94036.19;;;23.65;100.00
45941;BME280;31858;46.008;8.978;2023-06-10T15:43:22;94043.84;;;23.52;100.00
45941;BME280;31858;46.008;8.978;2023-06-10T15:53:25;94045.59;;;22.68;100.00
45941;BME280;31858;46.008;8.978;2023-06-10T16:03:27;94049.34;;;22.05;100.00
45941;BME280;31858;46.008;8.978;2023-06-10T16:13:30;94071.78;;;20.96;100.00
45941;BME280;31858;46.008;8.978;2023-06-10T16:23:31;94078.06;;;20.34;100.00
45941;BME280;31858;46.008;8.978;2023-06-10T16:33:34;94111.50;;;19.75;100.00
45941;BME280;31858;46.008;8.978;2023-06-10T16:43:36;94138.72;;;19.24;100.00
45941;BME280;31858;46.008;8.978;2023-06-10T16:53:39;94168.44;;;18.99;100.00
45941;BME280;31858;46.008;8.978;2023-06-10T17:03:41;94177.09;;;18.81;100.00
45941;BME280;31858;46.008;8.978;2023-06-10T17:13:44;94193.06;;;18.75;100.00
45941;BME280;31858;46.008;8.978;2023-06-10T17:23:45;94210.22;;;18.69;100.00
45941;BME280;31858;46.008;8.978;2023-06-10T17:33:49;94189.91;;;18.51;100.00
45941;BME280;31858;46.008;8.978;2023-06-10T17:43:50;94225.78;;;18.36;100.00
45941;BME280;31858;46.008;8.978;2023-06-10T17:53:53;94222.00;;;18.33;100.00
45941;BME280;31858;46.008;8.978;2023-06-10T18:03:55;94196.41;;;18.12;100.00
45941;BME280;31858;46.008;8.978;2023-06-10T18:13:58;94190.94;;;17.87;100.00
45941;BME280;31858;46.008;8.978;2023-06-10T18:23:59;94215.28;;;17.83;100.00
45941;BME280;31858;46.008;8.978;2023-06-10T18:34:02;94232.63;;;17.82;100.00
45941;BME280;31858;46.008;8.978;2023-06-10T18:44:04;94210.47;;;17.91;100.00
45941;BME280;31858;46.008;8.978;2023-06-10T18:54:07;94241.06;;;17.84;100.00
45941;BME280;31858;46.008;8.978;2023-06-10T19:04:08;94253.19;;;17.76;100.00
45941;BME280;31858;46.008;8.978;2023-06-10T19:14:12;94235.44;;;17.79;100.00
45941;BME280;31858;46.008;8.978;2023-06-10T19:24:13;94246.19;;;17.63;100.00
45941;BME280;31858;46.008;8.978;2023-06-10T19:34:16;94282.56;;;17.38;100.00
45941;BME280;31858;46.008;8.978;2023-06-10T19:44:18;94295.00;;;17.16;100.00
45941;BME280;31858;46.008;8.978;2023-06-10T19:54:21;94310.13;;;17.10;100.00
45941;BME280;31858;46.008;8.978;2023-06-10T20:04:22;94313.31;;;17.05;100.00
45941;BME280;31858;46.008;8.978;2023-06-10T20:14:25;94321.47;;;17.01;100.00
45941;BME280;31858;46.008;8.978;2023-06-10T20:24:27;94293.41;;;17.18;100.00
45941;BME280;31858;46.008;8.978;2023-06-10T20:34:30;94286.44;;;17.21;100.00
45941;BME280;31858;46.008;8.978;2023-06-10T20:44:32;94286.44;;;17.37;100.00
45941;BME280;31858;46.008;8.978;2023-06-10T20:54:35;94287.13;;;17.41;100.00
45941;BME280;31858;46.008;8.978;2023-06-10T21:04:36;94293.16;;;17.29;100.00
45941;BME280;31858;46.008;8.978;2023-06-10T21:14:39;94298.50;;;16.96;100.00
45941;BME280;31858;46.008;8.978;2023-06-10T21:24:41;94298.06;;;16.82;100.00
45941;BME280;31858;46.008;8.978;2023-06-10T21:34:44;94315.66;;;16.86;100.00
45941;BME280;31858;46.008;8.978;2023-06-10T21:44:45;94318.06;;;16.81;100.00
45941;BME280;31858;46.008;8.978;2023-06-10T21:54:48;94301.84;;;16.84;100.00
45941;BME280;31858;46.008;8.978;2023-06-10T22:04:50;94300.84;;;16.94;100.00
45941;BME280;31858;46.008;8.978;2023-06-10T22:14:54;94306.50;;;17.00;100.00
45941;BME280;31858;46.008;8.978;2023-06-10T22:24:56;94324.56;;;16.83;100.00
45941;BME280;31858;46.008;8.978;2023-06-10T22:34:58;94315.72;;;16.83;100.00
45941;BME280;31858;46.008;8.978;2023-06-10T22:45:00;94311.59;;;16.78;100.00
45941;BME280;31858;46.008;8.978;2023-06-10T22:55:04;94307.88;;;16.72;100.00
45941;BME280;31858;46.008;8.978;2023-06-10T23:05:06;94315.13;;;16.75;100.00
45941;BME280;31858;46.008;8.978;2023-06-10T23:15:11;94311.47;;;16.66;100.00
45941;BME280;31858;46.008;8.978;2023-06-10T23:25:12;94316.63;;;16.76;100.00
45941;BME280;31858;46.008;8.978;2023-06-10T23:35:15;94318.91;;;16.78;100.00
45941;BME280;31858;46.008;8.978;2023-06-10T23:45:19;94336.88;;;16.61;100.00
45941;BME280;31858;46.008;8.978;2023-06-10T23:55:22;94343.91;;;16.55;100.00
